Main page
METAR-TAF:

METAR-TAF

Airports :

Milan, Italy

Milan–Malpensa Airport

latitude: 45-37N, longitude: 008-44E, elevation: 234 m

Current weather observation

The report was made 34 minutes ago, at 16:50 UTC
Wind 8 kt from the West, varying between Southwest and Northwest
Temperature 26°C
Humidity 74%
Pressure 1013 hPa
Visibility: 7000 m
Few clouds at a height of 2500 ft, Cumulonimbus.
Broken clouds at a height of 6000 ft
thunderstorm, light rain

METAR: LIMC 261650Z 26008KT 230V310 7000 -TSRA FEW025CB BKN060 26/21 Q1013 NOSIG

Time: 19:24 (17:24 UTC)

Forecast

The report was made 6 hours and 24 minutes ago, at 11:00 UTC
Forecast valid from 26 at 12 UTC to 27 at 18 UTC
Wind 5 kt from variable directions
Visibility 10 km or more
Scattered clouds at a height of 4000 ft
Temporary
from 26 at 15 UTC to 27 at 04 UTC
Visibility: 3000 m
Broken clouds at a height of 1000 ft, Cumulonimbus.
thunderstorm, rain

TAF: LIMC 261100Z 2612/2718 VRB05KT 9999 SCT040 TEMPO 2615/2704 3000 TSRA BKN010CB

Weather observations and forecasts of more than 4000 airports (METAR and TAF reports).

The available stations are represented by yellow and red dots on the map.

Hover mouse over dot to see the name of the station.

Then click to see weather observations and forecasts.

To change the map : click on the green buttons with a black cross to zoom in, on the green button with a dash to zoom out, or on the green arrows for adjacent maps.


METAR-TAF: